首页
METAR-TAF:

METAR-TAF

机场 :

Dodge Center Airport (Dodge Center Municipal)

Dodge Center, 明尼蘇達州, 美国

纬度: 44-01-05N, 经度: 092-49-53W, 海拔: 398米

当前天气观测

该预报发布于22分钟前的07:35 UTC
风速9节,风向西转西北
温度 -20°C
湿度 70%
气压 1015 hPa
能見度: 16.1公里
天空无云

METAR: KTOB 100735Z AUTO 30009KT 10SM CLR M20/M24 A2998 RMK AO2

时间: 01:57 (07:57 UTC)


TAF: 丢失

超过4000个机场的气象观测和天气预报(METAR&TAF报告)。

可查询的气象台以黄色和红色小点在地图上表示。

将鼠标移到小点上方,可查看气象台名称。

然后点击查看天气观测和预报。

如需切换地图:点击带黑十字的绿色按钮放大地图;点击带横线的绿色按钮缩小地图;或者点击绿色箭头查看邻近地区的地图。


METAR-TAF: